Eldridge, IA (52748)

7:58 AM CST on December 05, 2016 (GMT -0600)
West Hickory Street | | Change Station
Active Advisory: Dense Fog Advisory Active Notice: Local Storm Report

Elev 774 ft 41.65 °N, 90.59 °W | Updated 7 minutes ago

Light Freezing Fog
Freezing Fog
31.5 °F
Feels Like 32 °F
N
2.0
Wind Variable Wind from South
Gusts 8.0 mph

Today
High -- | Low -- °F
--% Chance of Precip.
Yesterday
High -- | Low -- °F
Precip. -- in
Pressure 29.99 in
Visibility 0.2 miles
Clouds
Windchill 32 °F
Dew Point 31 °F
Humidity 98%
Rainfall 0.00 in
Snow Depth Not available.
7:14 AM 4:31 PM
Waxing Crescent, 32% visible
METAR KDVN 051352Z AUTO 16009KT 1/4SM FZFG VV002 M01/M01 A2997 RMK AO2 SLP156 I1002 T10061011
Pressure 29.99 in
Visibility 0.2 miles
Clouds
Windchill 32 °F
Dew Point 31 °F
Humidity 98%
Rainfall 0.00 in
Snow Depth Not available.
7:14 AM 4:31 PM
Waxing Crescent, 32% visible
METAR KDVN 051352Z AUTO 16009KT 1/4SM FZFG VV002 M01/M01 A2997 RMK AO2 SLP156 I1002 T10061011

10-Day Weather Forecast

Almanac

Astronomy

Dec. 05, 2016 Rise Set
Actual Time
Civil Twilight
Nautical Twilight
Astronomical Twilight
Moon
Length of Visible Light
Length of Day
Tomorrow will be .
, % of the Moon is Illuminated

Today's Extremes

State Highs State Lows

Community

WunderPhotos

Upload Photos

1,955,780 photos uploaded!

WunderBlog® & News

Nearby

Air Quality

  Air Quality AQ Index Pollutant
Not available.

Snow Depth

Station Depth Elevation

Earthquake Activity

City Distance Mag. Time & Date
Minimum magnitude displayed is 2.5.

Coastal Water Temperatures

Place Temperature

Stations

Nearby Weather Stations

Station Location Temp. Windchill Dew Point Humidity Wind Precip. Elev Updated Type
                   

Watches & Warnings

Dense Fog Advisory
Issued: 5:47 AM CST Dec. 5, 2016 – National Weather Service

... Dense fog advisory in effect until noon CST today...

The National Weather Service in Quad Cities has issued a dense
fog advisory... which is in effect until noon CST today.

* Timing... now through noon Monday.

* Impacts... visibilities less than 1/4 mile and some near zero
will make driving difficult.

Precautionary/preparedness actions...

A dense fog advisory means visibilities will frequently be
reduced to less than one quarter mile. If driving... slow down...
use your headlights... and leave plenty of distance ahead of you.

A dense fog advisory means visibilities will frequently be
reduced to less than one quarter mile. If driving, slow down, use
your headlights, and leave plenty of distance ahead of you.